createdAt,value
2018-09-15T00:00:53.081Z,16.90
2018-09-15T00:03:21.604Z,17.00
2018-09-15T00:05:50.097Z,17.00
2018-09-15T00:08:18.518Z,17.00
2018-09-15T00:10:47.293Z,16.90
2018-09-15T00:13:16.111Z,16.90
2018-09-15T00:15:44.538Z,16.90
2018-09-15T00:18:14.495Z,16.80
2018-09-15T00:20:43.112Z,16.80
2018-09-15T00:23:12.199Z,16.80
2018-09-15T00:25:41.432Z,16.80
2018-09-15T00:28:10.775Z,16.80
2018-09-15T00:30:39.253Z,16.70
2018-09-15T00:33:09.494Z,16.80
2018-09-15T00:35:37.929Z,16.80
2018-09-15T00:38:08.630Z,16.70
2018-09-15T00:40:39.528Z,16.70
2018-09-15T00:43:07.902Z,16.70
2018-09-15T00:45:37.007Z,16.60
2018-09-15T00:48:05.376Z,16.60
2018-09-15T00:50:35.096Z,16.50
2018-09-15T00:53:04.395Z,16.50
2018-09-15T00:55:32.773Z,16.50
2018-09-15T00:58:01.248Z,16.50
2018-09-15T01:00:29.904Z,16.40
2018-09-15T01:03:06.039Z,16.40
2018-09-15T01:05:37.768Z,16.40
2018-09-15T01:08:06.240Z,16.40
2018-09-15T01:10:38.220Z,16.40
2018-09-15T01:13:06.685Z,16.40
2018-09-15T01:15:35.027Z,16.40
2018-09-15T01:18:04.051Z,16.40
2018-09-15T01:20:32.590Z,16.50
2018-09-15T01:23:01.085Z,16.50
2018-09-15T01:25:31.254Z,16.60
2018-09-15T01:27:59.659Z,16.60
2018-09-15T01:30:29.371Z,16.60
2018-09-15T01:32:58.785Z,16.70
2018-09-15T01:35:28.488Z,16.70
2018-09-15T01:37:56.829Z,16.70
2018-09-15T01:40:25.767Z,16.80
2018-09-15T01:42:54.145Z,16.80
2018-09-15T01:45:29.588Z,16.80
2018-09-15T01:48:05.106Z,16.70
2018-09-15T01:50:34.198Z,16.70
2018-09-15T01:53:03.056Z,16.70
2018-09-15T01:55:31.504Z,16.70
2018-09-15T01:57:59.880Z,16.70
2018-09-15T02:00:28.467Z,16.70
2018-09-15T02:02:57.051Z,16.70
2018-09-15T02:05:25.496Z,16.70
2018-09-15T02:07:54.241Z,16.70
2018-09-15T02:10:22.681Z,16.70
2018-09-15T02:12:51.470Z,16.70
2018-09-15T02:15:21.466Z,16.70
2018-09-15T02:17:51.054Z,16.70
2018-09-15T02:20:19.518Z,16.70
2018-09-15T02:22:55.668Z,16.70
2018-09-15T02:25:24.458Z,16.70
2018-09-15T02:27:52.903Z,16.80
2018-09-15T02:30:21.521Z,16.70
2018-09-15T02:32:50.296Z,16.70
2018-09-15T02:35:18.796Z,16.80
2018-09-15T02:37:53.253Z,16.80
2018-09-15T02:40:22.444Z,16.90
2018-09-15T02:42:54.068Z,16.90
2018-09-15T02:45:23.077Z,16.90
2018-09-15T02:47:51.806Z,16.90
2018-09-15T02:50:20.410Z,16.80
2018-09-15T02:52:50.012Z,16.80
2018-09-15T02:55:19.578Z,16.80
2018-09-15T02:57:48.247Z,16.80
2018-09-15T03:00:17.547Z,16.80
2018-09-15T03:02:47.519Z,16.70
2018-09-15T03:05:16.158Z,16.70
2018-09-15T03:07:44.564Z,16.70
2018-09-15T03:10:12.989Z,16.70
2018-09-15T03:12:41.395Z,16.70
2018-09-15T03:15:09.776Z,16.70
2018-09-15T03:17:38.172Z,16.60
2018-09-15T03:20:06.729Z,16.60
2018-09-15T03:22:35.281Z,16.60
2018-09-15T03:25:03.786Z,16.60
2018-09-15T03:27:33.200Z,16.60
2018-09-15T03:30:01.571Z,16.60
2018-09-15T03:32:29.920Z,16.60
2018-09-15T03:34:58.698Z,16.50
2018-09-15T03:37:27.195Z,16.50
2018-09-15T03:39:55.658Z,16.50
2018-09-15T03:42:24.225Z,16.40
2018-09-15T03:44:53.249Z,16.40
2018-09-15T03:47:23.121Z,16.40
2018-09-15T03:49:51.661Z,16.40
2018-09-15T03:52:20.093Z,16.40
2018-09-15T03:54:48.706Z,16.40
2018-09-15T03:57:17.232Z,16.40
2018-09-15T03:59:45.674Z,16.40
2018-09-15T04:02:14.271Z,16.40
2018-09-15T04:04:42.721Z,16.30
2018-09-15T04:07:11.165Z,16.30
2018-09-15T04:09:39.603Z,16.40
2018-09-15T04:12:16.026Z,16.30
2018-09-15T04:14:44.605Z,16.30
2018-09-15T04:17:14.701Z,16.30
2018-09-15T04:19:43.256Z,16.30
2018-09-15T04:22:11.745Z,16.30
2018-09-15T04:24:40.183Z,16.30
2018-09-15T04:27:08.656Z,16.30
2018-09-15T04:29:37.452Z,16.20
2018-09-15T04:32:05.847Z,16.10
2018-09-15T04:34:35.223Z,16.00
2018-09-15T04:37:03.592Z,16.00
2018-09-15T04:39:32.077Z,16.00
2018-09-15T04:42:00.646Z,16.00
2018-09-15T04:44:29.055Z,15.90
2018-09-15T04:46:57.497Z,15.90
2018-09-15T04:49:25.875Z,15.90
2018-09-15T04:51:54.281Z,15.90
2018-09-15T04:54:22.742Z,15.90
2018-09-15T04:56:51.257Z,15.80
2018-09-15T04:59:19.747Z,15.80
2018-09-15T05:01:49.056Z,15.80
2018-09-15T05:04:17.517Z,15.80
2018-09-15T05:06:46.161Z,15.80
2018-09-15T05:09:14.791Z,15.80
2018-09-15T05:11:43.207Z,15.90
2018-09-15T05:14:11.606Z,15.90
2018-09-15T05:16:40.047Z,15.90
2018-09-15T05:19:08.417Z,15.90
2018-09-15T05:21:36.817Z,15.80
2018-09-15T05:24:05.332Z,15.80
2018-09-15T05:26:33.699Z,15.70
2018-09-15T05:29:02.107Z,15.70
2018-09-15T05:31:30.609Z,15.70
2018-09-15T05:33:58.907Z,15.70
2018-09-15T05:36:27.264Z,15.60
2018-09-15T05:38:55.782Z,15.60
2018-09-15T05:41:24.191Z,15.60
2018-09-15T05:43:52.626Z,15.60
2018-09-15T05:46:21.009Z,15.60
2018-09-15T05:48:49.447Z,15.50
2018-09-15T05:51:18.107Z,15.50
2018-09-15T05:53:52.728Z,15.60
2018-09-15T05:56:21.277Z,15.70
2018-09-15T05:58:50.273Z,15.80
2018-09-15T06:01:18.723Z,15.90
2018-09-15T06:03:48.074Z,15.90
2018-09-15T06:06:16.492Z,16.10
2018-09-15T06:08:47.337Z,16.20
2018-09-15T06:11:15.880Z,16.20
2018-09-15T06:13:44.462Z,16.10
2018-09-15T06:16:12.924Z,16.20
2018-09-15T06:18:42.193Z,16.20
2018-09-15T06:21:10.677Z,16.20
2018-09-15T06:23:39.109Z,16.30
2018-09-15T06:26:07.796Z,16.30
2018-09-15T06:28:36.441Z,16.30
2018-09-15T06:31:05.006Z,16.20
2018-09-15T06:33:34.195Z,16.10
2018-09-15T06:36:02.650Z,16.10
2018-09-15T06:38:31.264Z,16.10
2018-09-15T06:41:00.638Z,16.00
2018-09-15T06:43:29.109Z,16.00
2018-09-15T06:45:57.635Z,16.00
2018-09-15T06:48:26.116Z,15.90
2018-09-15T06:50:54.613Z,15.80
2018-09-15T06:53:23.109Z,15.80
2018-09-15T06:55:51.676Z,15.80
2018-09-15T06:58:20.381Z,15.80
2018-09-15T07:00:49.522Z,15.90
2018-09-15T07:03:18.121Z,16.00
2018-09-15T07:05:46.667Z,16.10
2018-09-15T07:08:16.902Z,16.10
2018-09-15T07:10:45.439Z,16.20
2018-09-15T07:13:14.696Z,16.20
2018-09-15T07:15:43.122Z,16.30
2018-09-15T07:18:11.534Z,16.40
2018-09-15T07:20:40.704Z,16.40
2018-09-15T07:23:09.113Z,16.40
2018-09-15T07:25:38.622Z,16.50
2018-09-15T07:28:07.575Z,16.60
2018-09-15T07:30:37.323Z,16.60
2018-09-15T07:33:05.904Z,16.60
2018-09-15T07:35:40.763Z,16.70
2018-09-15T07:38:09.171Z,16.70
2018-09-15T07:40:37.653Z,16.80
2018-09-15T07:43:12.834Z,16.80
2018-09-15T07:45:42.079Z,16.80
2018-09-15T07:48:10.898Z,16.80
2018-09-15T07:50:39.641Z,16.90
2018-09-15T07:53:09.146Z,16.90
2018-09-15T07:55:38.450Z,16.90
2018-09-15T07:58:07.386Z,17.10
2018-09-15T08:00:42.677Z,17.20
2018-09-15T08:03:11.610Z,17.30
2018-09-15T08:05:42.500Z,17.20
2018-09-15T08:08:11.058Z,17.30
2018-09-15T08:10:39.582Z,17.50
2018-09-15T08:13:10.714Z,17.60
2018-09-15T08:15:40.262Z,17.40
2018-09-15T08:18:08.830Z,17.40
2018-09-15T08:20:37.864Z,17.30
2018-09-15T08:23:07.276Z,17.20
2018-09-15T08:25:35.838Z,17.20
2018-09-15T08:33:49.765Z,16.90
2018-09-15T08:36:19.051Z,16.90
2018-09-15T08:38:50.097Z,17.10
2018-09-15T08:41:18.663Z,17.20
2018-09-15T08:43:53.732Z,17.30
2018-09-15T08:46:22.295Z,17.40
2018-09-15T08:48:50.668Z,17.50
2018-09-15T08:51:19.748Z,17.50
2018-09-15T08:53:48.370Z,17.70
2018-09-15T08:56:17.244Z,17.80
2018-09-15T08:58:45.711Z,17.80
2018-09-15T09:01:15.455Z,17.80
2018-09-15T09:03:44.327Z,17.80
2018-09-15T09:06:13.038Z,17.90
2018-09-15T09:08:41.605Z,17.70
2018-09-15T09:11:10.063Z,17.70
2018-09-15T09:13:38.920Z,17.60
2018-09-15T09:16:09.733Z,17.70
2018-09-15T09:18:38.448Z,17.80
2018-09-15T09:21:07.814Z,17.90
2018-09-15T09:23:39.560Z,17.90
2018-09-15T09:26:10.223Z,18.00
2018-09-15T09:28:39.444Z,18.10
2018-09-15T09:31:08.262Z,18.00
2018-09-15T09:33:36.956Z,18.00
2018-09-15T09:38:51.736Z,18.00
2018-09-15T09:41:20.675Z,17.90
2018-09-15T09:43:49.358Z,18.00
2018-09-15T09:46:17.811Z,17.80
2018-09-15T09:48:46.398Z,17.60
2018-09-15T09:51:15.062Z,17.70
2018-09-15T09:53:43.871Z,17.80
2018-09-15T09:56:12.248Z,17.90
2018-09-15T09:58:40.665Z,18.20
2018-09-15T10:01:14.647Z,18.10
2018-09-15T10:03:42.895Z,17.90
2018-09-15T10:06:11.291Z,17.80
2018-09-15T10:08:39.680Z,17.60
2018-09-15T10:11:08.114Z,17.60
2018-09-15T10:13:36.450Z,17.60
2018-09-15T10:16:04.940Z,17.70
2018-09-15T10:18:33.629Z,17.50
2018-09-15T10:21:02.016Z,17.50
2018-09-15T10:23:30.471Z,17.50
2018-09-15T10:25:58.853Z,17.50
2018-09-15T10:28:27.426Z,17.70
2018-09-15T10:30:56.137Z,17.80
2018-09-15T10:33:24.696Z,18.00
2018-09-15T10:35:53.296Z,18.30
2018-09-15T10:38:22.115Z,18.50
2018-09-15T10:40:50.645Z,18.40
2018-09-15T10:43:19.281Z,18.30
2018-09-15T10:45:47.891Z,18.30
2018-09-15T10:48:16.420Z,18.50
2018-09-15T10:50:45.073Z,18.50
2018-09-15T10:53:20.576Z,18.40
2018-09-15T10:55:49.389Z,18.40
2018-09-15T10:58:22.559Z,18.70
2018-09-15T11:00:51.517Z,19.10
2018-09-15T11:03:22.302Z,19.20
2018-09-15T11:05:51.039Z,19.00
2018-09-15T11:08:19.753Z,18.60
2018-09-15T11:10:49.351Z,18.20
2018-09-15T11:13:18.183Z,18.20
2018-09-15T11:15:47.173Z,18.60
2018-09-15T11:18:15.770Z,19.30
2018-09-15T11:20:44.401Z,19.50
2018-09-15T11:23:13.943Z,20.20
2018-09-15T11:25:42.663Z,20.30
2018-09-15T11:28:11.480Z,21.00
2018-09-15T11:30:40.044Z,20.20
2018-09-15T11:33:08.592Z,19.70
2018-09-15T11:35:37.163Z,20.00
2018-09-15T11:38:06.616Z,19.40
2018-09-15T11:40:35.259Z,19.20
2018-09-15T11:43:03.844Z,20.20
2018-09-15T11:45:32.831Z,19.60
2018-09-15T11:48:08.588Z,19.70
2018-09-15T11:50:37.757Z,20.20
2018-09-15T11:53:07.735Z,20.20
2018-09-15T11:55:36.414Z,20.20
2018-09-15T11:58:05.814Z,21.60
2018-09-15T12:00:38.683Z,22.90
2018-09-15T12:03:11.967Z,22.70
2018-09-15T12:05:41.282Z,22.80
2018-09-15T12:08:12.957Z,23.40
2018-09-15T12:10:42.310Z,22.90
2018-09-15T12:13:10.803Z,23.10
2018-09-15T12:15:40.073Z,22.90
2018-09-15T12:18:08.731Z,23.00
2018-09-15T12:20:38.228Z,23.30
2018-09-15T12:23:07.144Z,24.00
2018-09-15T12:25:36.962Z,24.70
2018-09-15T12:28:06.239Z,24.60
2018-09-15T12:30:34.893Z,24.90
2018-09-15T12:33:03.789Z,24.90
2018-09-15T12:35:35.741Z,25.40
2018-09-15T12:38:05.343Z,25.60
2018-09-15T12:40:37.834Z,25.40
2018-09-15T12:43:14.833Z,26.00
2018-09-15T12:46:04.489Z,26.20
2018-09-15T12:48:34.263Z,25.90
2018-09-15T12:51:03.566Z,26.40
2018-09-15T12:53:32.804Z,26.30
2018-09-15T12:56:24.451Z,26.40
2018-09-15T12:58:53.451Z,27.10
2018-09-15T13:01:25.551Z,27.60
2018-09-15T13:03:54.517Z,26.90
2018-09-15T13:06:24.623Z,27.30
2018-09-15T13:08:53.384Z,27.50
2018-09-15T13:11:21.975Z,27.30
2018-09-15T13:13:50.555Z,27.00
2018-09-15T13:16:19.371Z,27.80
2018-09-15T13:18:49.045Z,27.70
2018-09-15T13:21:17.686Z,26.20
2018-09-15T13:23:46.728Z,27.20
2018-09-15T13:26:15.412Z,26.90
2018-09-15T13:28:43.884Z,27.50
2018-09-15T13:31:12.351Z,28.30
2018-09-15T13:33:40.996Z,29.20
2018-09-15T13:36:09.779Z,28.80
2018-09-15T13:38:38.292Z,28.70
2018-09-15T13:41:06.840Z,27.70
2018-09-15T13:43:35.507Z,27.70
2018-09-15T13:46:06.261Z,28.30
2018-09-15T13:48:37.963Z,27.80
2018-09-15T13:51:06.523Z,28.60
2018-09-15T13:53:36.459Z,28.70
2018-09-15T13:56:07.002Z,27.20
2018-09-15T13:58:35.963Z,27.30
2018-09-15T14:01:04.556Z,28.00
2018-09-15T14:03:33.046Z,27.40
2018-09-15T14:06:02.009Z,27.60
2018-09-15T14:08:30.602Z,28.10
2018-09-15T14:10:59.551Z,27.90
2018-09-15T14:48:50.870Z,27.50
2018-09-15T14:51:19.320Z,27.30
2018-09-15T14:53:48.702Z,27.20
2018-09-15T14:56:17.513Z,27.60
2018-09-15T14:58:47.264Z,27.60
2018-09-15T15:01:16.101Z,28.50
2018-09-15T15:03:46.493Z,28.50
2018-09-15T15:06:15.959Z,28.30
2018-09-15T15:08:44.492Z,27.30
2018-09-15T15:11:12.970Z,26.10
2018-09-15T15:13:41.674Z,27.00
2018-09-15T15:16:10.457Z,27.70
2018-09-15T15:18:40.073Z,27.10
2018-09-15T15:21:08.506Z,26.10
2018-09-15T15:23:38.271Z,25.50
2018-09-15T15:26:08.847Z,24.40
2018-09-15T15:28:37.430Z,23.10
2018-09-15T15:31:11.284Z,22.10
2018-09-15T15:33:43.221Z,21.80
2018-09-15T15:36:13.118Z,21.50
2018-09-15T15:38:42.853Z,20.80
2018-09-15T15:41:13.669Z,21.00
2018-09-15T15:43:45.300Z,20.90
2018-09-15T15:46:13.855Z,20.60
2018-09-15T15:48:43.507Z,20.80
2018-09-15T15:51:12.241Z,20.40
2018-09-15T15:53:40.928Z,20.40
2018-09-15T15:56:09.438Z,20.30
2018-09-15T15:58:38.097Z,20.50
2018-09-15T16:01:06.473Z,20.40
2018-09-15T16:03:34.960Z,20.30
2018-09-15T16:06:03.516Z,20.30
2018-09-15T16:08:32.036Z,20.00
2018-09-15T16:11:00.615Z,20.10
2018-09-15T16:13:29.053Z,20.00
2018-09-15T16:15:58.704Z,19.90
2018-09-15T16:18:27.607Z,19.80
2018-09-15T16:20:55.983Z,19.80
2018-09-15T16:23:24.619Z,19.70
2018-09-15T16:25:53.483Z,19.70
2018-09-15T16:28:22.348Z,19.80
2018-09-15T16:30:50.883Z,19.70
2018-09-15T16:33:19.332Z,19.70
2018-09-15T16:35:48.492Z,19.40
2018-09-15T16:38:18.076Z,19.40
2018-09-15T16:40:46.546Z,19.20
2018-09-15T16:43:14.978Z,19.30
2018-09-15T16:45:43.362Z,19.20
2018-09-15T16:48:11.743Z,19.30
2018-09-15T16:50:40.357Z,19.20
2018-09-15T16:53:53.015Z,19.20
2018-09-15T16:56:22.787Z,19.10
2018-09-15T16:58:53.555Z,19.20
2018-09-15T17:01:32.805Z,19.10
2018-09-15T17:04:31.427Z,19.10
2018-09-15T17:07:09.250Z,18.90
2018-09-15T17:09:38.548Z,18.80
2018-09-15T17:12:09.584Z,18.90
2018-09-15T17:14:48.389Z,18.80
2018-09-15T17:17:19.934Z,18.70
2018-09-15T17:19:57.336Z,18.70
2018-09-15T17:22:30.316Z,18.70
2018-09-15T17:25:01.218Z,18.60
2018-09-15T17:27:30.166Z,18.50
2018-09-15T17:30:03.224Z,18.60
2018-09-15T17:32:31.844Z,18.50
2018-09-15T17:35:01.463Z,18.50
2018-09-15T17:37:31.195Z,18.40
2018-09-15T17:39:59.709Z,18.30
2018-09-15T17:42:28.645Z,18.30
2018-09-15T17:44:57.306Z,18.30
2018-09-15T17:47:25.922Z,18.20
2018-09-15T17:49:54.401Z,18.10
2018-09-15T17:52:23.166Z,18.10
2018-09-15T17:54:51.947Z,18.00
2018-09-15T17:57:20.557Z,17.90
2018-09-15T17:59:55.580Z,18.00
2018-09-15T18:02:24.284Z,17.90
2018-09-15T18:04:53.083Z,17.80
2018-09-15T18:07:21.677Z,17.80
2018-09-15T18:09:50.558Z,17.70
2018-09-15T18:12:19.194Z,17.70
2018-09-15T18:14:47.884Z,17.60
2018-09-15T18:17:16.571Z,17.50
2018-09-15T18:19:50.801Z,17.40
2018-09-15T18:22:20.949Z,17.50
2018-09-15T18:24:51.307Z,17.40
2018-09-15T18:27:20.296Z,17.30
2018-09-15T18:29:48.892Z,17.30
2018-09-15T18:32:17.808Z,17.20
2018-09-15T18:34:47.638Z,17.20
2018-09-15T18:37:16.137Z,17.20
2018-09-15T18:39:46.446Z,17.10
2018-09-15T18:42:16.614Z,17.00
2018-09-15T18:44:52.057Z,17.00
2018-09-15T18:47:21.050Z,17.00
2018-09-15T18:49:52.945Z,16.80
2018-09-15T18:52:31.041Z,16.80
2018-09-15T18:55:01.752Z,16.80
2018-09-15T18:57:33.207Z,16.80
2018-09-15T19:00:01.998Z,16.70
2018-09-15T19:02:31.453Z,16.70
2018-09-15T19:05:00.144Z,16.60
2018-09-15T19:07:29.952Z,16.60
2018-09-15T19:10:01.298Z,16.60
2018-09-15T19:12:36.533Z,16.50
2018-09-15T19:15:07.245Z,16.40
2018-09-15T19:17:35.779Z,16.40
2018-09-15T19:20:04.292Z,16.30
2018-09-15T19:22:33.115Z,16.30
2018-09-15T19:25:01.940Z,16.20
2018-09-15T19:27:33.740Z,16.20
2018-09-15T19:30:02.434Z,16.20
2018-09-15T19:32:31.094Z,16.20
2018-09-15T19:34:59.700Z,16.10
2018-09-15T19:37:29.469Z,16.00
2018-09-15T19:39:58.206Z,16.00
2018-09-15T19:42:26.812Z,16.00
2018-09-15T19:44:58.945Z,15.90
2018-09-15T19:47:28.764Z,15.90
2018-09-15T19:49:59.900Z,15.90
2018-09-15T19:52:31.462Z,15.90
2018-09-15T19:55:06.151Z,15.80
2018-09-15T19:57:35.039Z,15.80
2018-09-15T20:00:04.760Z,15.70
2018-09-15T20:02:36.121Z,15.70
2018-09-15T20:05:11.609Z,15.70
2018-09-15T20:07:40.656Z,15.70
2018-09-15T20:10:09.545Z,15.70
2018-09-15T20:12:38.955Z,15.70
2018-09-15T20:15:17.550Z,15.70
2018-09-15T20:17:45.539Z,15.60
2018-09-15T20:20:12.975Z,15.60
2018-09-15T20:22:41.394Z,15.60
2018-09-15T20:25:09.945Z,15.60
2018-09-15T20:27:38.643Z,15.60
2018-09-15T20:30:07.497Z,15.60
2018-09-15T20:32:36.388Z,15.60
2018-09-15T20:35:05.657Z,15.50
2018-09-15T20:37:34.322Z,15.50
2018-09-15T20:40:03.955Z,15.50
2018-09-15T20:42:32.627Z,15.40
2018-09-15T20:45:01.262Z,15.30
2018-09-15T20:47:29.982Z,15.30
2018-09-15T20:49:59.323Z,15.30
2018-09-15T20:52:28.040Z,15.30
2018-09-15T20:54:57.229Z,15.30
2018-09-15T20:57:26.052Z,15.30
2018-09-15T20:59:54.547Z,15.20
2018-09-15T21:02:23.204Z,15.20
2018-09-15T21:04:51.837Z,15.10
2018-09-15T21:07:20.482Z,15.10
2018-09-15T21:09:49.270Z,15.10
2018-09-15T21:12:18.108Z,15.10
2018-09-15T21:14:46.913Z,15.10
2018-09-15T21:17:15.534Z,15.10
2018-09-15T21:19:44.193Z,15.10
2018-09-15T21:22:14.157Z,15.10
2018-09-15T21:24:42.934Z,15.20
2018-09-15T21:27:11.748Z,15.20
2018-09-15T21:29:40.223Z,15.20
2018-09-15T21:32:09.392Z,15.20
2018-09-15T21:34:38.215Z,15.20
2018-09-15T21:37:07.269Z,15.30
2018-09-15T21:42:20.776Z,15.30
2018-09-15T21:44:49.460Z,15.30
2018-09-15T21:47:18.301Z,15.30
2018-09-15T21:49:46.885Z,15.30
2018-09-15T21:52:15.659Z,15.30
2018-09-15T21:54:44.232Z,15.20
2018-09-15T21:57:12.733Z,15.30
2018-09-15T21:59:41.427Z,15.30
2018-09-15T22:02:10.010Z,15.30
2018-09-15T22:04:38.695Z,15.40
2018-09-15T22:07:07.257Z,15.30
2018-09-15T22:09:36.131Z,15.30
2018-09-15T22:12:04.643Z,15.30
2018-09-15T22:14:33.614Z,15.20
2018-09-15T22:17:03.203Z,15.10
2018-09-15T22:19:31.942Z,15.00
2018-09-15T22:22:00.846Z,15.00
2018-09-15T22:24:29.975Z,15.00
2018-09-15T22:26:58.860Z,15.00
2018-09-15T22:29:28.024Z,15.00
2018-09-15T22:31:56.848Z,15.00
2018-09-15T22:34:25.608Z,15.10
2018-09-15T22:36:54.425Z,15.10
2018-09-15T22:39:23.409Z,15.00
2018-09-15T22:41:52.516Z,15.00
2018-09-15T22:44:21.320Z,15.00
2018-09-15T22:46:49.903Z,15.00
2018-09-15T22:49:18.714Z,15.10
2018-09-15T22:51:47.425Z,15.10
2018-09-15T22:54:16.201Z,15.10
2018-09-15T22:56:45.056Z,15.10
2018-09-15T22:59:13.752Z,15.10
2018-09-15T23:01:42.681Z,15.20
2018-09-15T23:04:13.269Z,15.20
2018-09-15T23:06:41.856Z,15.20
2018-09-15T23:09:11.698Z,15.20
2018-09-15T23:11:40.250Z,15.30
2018-09-15T23:14:08.909Z,15.30
2018-09-15T23:16:37.551Z,15.40
2018-09-15T23:19:06.277Z,15.40
2018-09-15T23:21:34.843Z,15.40
2018-09-15T23:24:03.373Z,15.40
2018-09-15T23:26:31.972Z,15.50
2018-09-15T23:29:00.564Z,15.50
2018-09-15T23:31:29.899Z,15.40
2018-09-15T23:33:59.074Z,15.40
2018-09-15T23:36:27.795Z,15.40
2018-09-15T23:38:56.525Z,15.40
2018-09-15T23:41:25.663Z,15.50
2018-09-15T23:43:54.697Z,15.50
2018-09-15T23:46:23.867Z,15.50
2018-09-15T23:48:52.504Z,15.40
2018-09-15T23:51:21.302Z,15.40
2018-09-15T23:53:49.959Z,15.40
2018-09-15T23:56:18.487Z,15.30
2018-09-15T23:58:46.989Z,15.30
